• Join FlightAware (Why Join?)
  • Login
  • US Flag 
08:11AM EDT


 

Airport Tracker/Info


-or-


 

Live Flight TrackerFlight Track Log ✈ UCA3596 ✈ 15-Jan-2014 ✈ KBGM - KIAD

Flight Track Log - Related Links

Times and Time Zones

All times are in EST time to prevent confusion due to time zone crossing. See the UCA3596 flight status page for this flight to view local times or setup timezone preferences in your user account.

Time Position Orientation Groundspeed Altitude Reporting Facility
EST Latitude Longitude Course Direction KTS MPH feet Rate Location/Type
02:46PM 42.1678 -75.9664 209° Southwest 255 293 3,400  Level New York Center
02:47PM 42.1314 -75.9889 205° Southwest 155 178 4,500 1,260 Climbing New York Center
02:48PM 42.0964 -76.0281 220° Southwest 162 186 6,000 1,560 Climbing New York Center
02:49PM 42.0639 -76.0589 215° Southwest 162 186 7,700 1,500 Climbing New York Center
02:50PM 42.0314 -76.0842 210° Southwest 157 181 9,000 1,380 Climbing New York Center
02:51PM 41.9961 -76.1261 221° Southwest 157 181 10,500 1,500 Climbing New York Center
02:52PM 41.9384 -76.1082 209° Southwest  Level Estimated
02:52PM 41.9633 -76.1625 220° Southwest 162 186 12,000  Level New York Center
02:53PM 41.9308 -76.1933 215° Southwest 157 181 13,200 1,080 Climbing New York Center
02:54PM 41.9003 -76.2214 214° Southwest 157 181 14,200 1,140 Climbing New York Center
02:55PM 41.8653 -76.2603 220° Southwest 157 181 15,500 900 Climbing New York Center
02:56PM 41.8281 -76.2961 216° Southwest 157 181 16,000 240 Climbing New York Center
02:57PM 41.7867 -76.3372 217° Southwest 178 205 16,000  Level New York Center
02:58PM 41.7453 -76.3783 217° Southwest 199 229 16,000  Level New York Center
02:59PM 41.6972 -76.4242 215° Southwest 211 243 16,000  Level New York Center
03:00PM 41.6469 -76.4756 217° Southwest 211 243 16,000  Level New York Center
03:01PM 41.5989 -76.5186 214° Southwest 211 243 16,000  Level New York Center
03:02PM 41.5531 -76.5644 217° Southwest 211 243 16,000  Level New York Center
03:03PM 41.5136 -76.6028 216° Southwest 211 243 16,000  Level New York Center
03:04PM 41.4611 -76.6536 216° Southwest 211 243 16,000  Level New York Center
03:05PM 41.4169 -76.7022 220° Southwest 211 243 16,000  Level New York Center
03:06PM 41.3711 -76.7453 215° Southwest 211 243 16,000  Level New York Center
03:07PM 41.3233 -76.7825 210° Southwest 211 243 16,000  Level New York Center
03:08PM 41.2686 -76.7942 189° South 206 237 16,000  Level New York Center
03:09PM 41.2097 -76.8028 186° South 216 249 16,000  Level New York Center
03:10PM 41.1531 -76.8142 189° South 216 249 16,000  Level New York Center
03:11PM 41.0964 -76.8228 187° South 216 249 16,000  Level New York Center
03:12PM 41.0372 -76.8369 190° South 221 254 16,000  Level New York Center
03:13PM 40.9803 -76.8483 189° South 221 254 16,000  Level New York Center
03:14PM 40.9236 -76.8597 189° South 221 254 16,000  Level New York Center
03:15PM 40.8606 -76.8706 187° South 216 249 16,000  Level New York Center
03:16PM 40.8078 -76.8822 189° South 222 255 16,000  Level New York Center
03:17PM 40.7464 -76.8989 192° South 217 250 16,000  Level New York Center
03:18PM 40.6956 -76.9161 194° South 217 250 16,000  Level New York Center
03:19PM 40.6300 -76.9347 192° South 217 250 16,000  Level New York Center
03:20PM 40.5792 -76.9494 192° South 217 250 16,000  Level New York Center
03:21PM 40.5156 -76.9711 195° South 212 244 16,000  Level New York Center
03:22PM 40.4644 -76.9883 194° South 212 244 16,000 -240 Level New York Center
03:23PM 40.4011 -77.0072 193° South 212 244 15,600 -960 Descending New York Center
03:25PM 40.2833 -77.0333 190° South 250 288 13,500 -1,200 Descending Potomac TRACON
03:26PM 40.2167 -77.0667 201° Southwest 248 285 12,400 -1,200 Descending Potomac TRACON
03:27PM 40.1500 -77.0833 191° South 243 280 11,200 -1,200 Descending Potomac TRACON
03:28PM 40.0833 -77.1000 191° South 238 274 10,000 -600 Descending Potomac TRACON
03:29PM 40.0333 -77.1167 194° South 224 258 10,000  Level Potomac TRACON
03:30PM 39.9667 -77.1333 191° South 219 252 10,000 -120 Level Potomac TRACON
03:31PM 39.9000 -77.1500 191° South 217 250 9,800 -600 Descending Potomac TRACON
03:32PM 39.8500 -77.1833 207° Southwest 233 268 8,800 -900 Descending Potomac TRACON
03:33PM 39.7833 -77.2000 191° South 237 273 8,000 -420 Descending Potomac TRACON
03:34PM 39.7167 -77.2167 191° South 229 264 8,000  Level Potomac TRACON
03:35PM 39.6667 -77.2500 207° Southwest 217 250 8,000  Level Potomac TRACON
03:36PM 39.6333 -77.3167 237° Southwest 214 246 8,000 -360 Level Potomac TRACON
03:37PM 39.6000 -77.3833 237° Southwest 225 259 7,300 -840 Descending Potomac TRACON
03:38PM 39.5667 -77.4500 237° Southwest 239 275 6,400 -660 Descending Potomac TRACON
03:39PM 39.5000 -77.4667 191° South 250 288 6,000 -600 Descending Potomac TRACON
03:40PM 39.4500 -77.4000 134° Southeast 251 289 5,200 -840 Descending Potomac TRACON
03:41PM 39.4000 -77.3667 153° Southeast 236 272 4,400 -600 Descending Potomac TRACON
03:42PM 39.3333 -77.3667 180° South 230 265 4,000 -240 Descending Potomac TRACON
03:43PM 39.2667 -77.3667 180° South 239 275 4,000  Level Potomac TRACON
03:44PM 39.2000 -77.3500 169° South 234 269 4,000  Level Potomac TRACON
03:45PM 39.1500 -77.3000 142° Southeast 237 273 4,000  Level Potomac TRACON
03:46PM 39.1000 -77.3500 218° Southwest 229 264 4,000  Level Potomac TRACON
03:47PM 39.0333 -77.3500 180° South 232 267 4,000  Level Potomac TRACON
03:48PM 38.9667 -77.3500 180° South 228 262 4,000  Level Potomac TRACON
03:49PM 38.9000 -77.3500 180° South 217 250 4,000  Level Potomac TRACON
03:50PM 38.8500 -77.3500 180° South 209 241 4,000  Level Potomac TRACON
03:51PM 38.7833 -77.3667 191° South 210 242 4,000  Level Potomac TRACON
03:52PM 38.7333 -77.3667 180° South 213 245 4,000 -300 Level Potomac TRACON
03:53PM 38.6833 -77.3833 195° South 226 260 3,500 -540 Descending Potomac TRACON
03:54PM 38.7167 -77.4333 311° West 185 213 3,000 -300 Descending Potomac TRACON
03:55PM 38.7667 -77.4333 360° North 175 201 3,000 -120 Level Potomac TRACON
03:56PM 38.8000 -77.4333 360° North 167 192 2,800 -540 Descending Potomac TRACON
03:57PM 38.8500 -77.4333 360° North 161 185 2,000 -780 Descending Potomac TRACON
03:58PM 38.8833 -77.4333 360° North 111 128 1,300 -720 Descending Potomac TRACON
03:59PM 38.9167 -77.4333 360° North 112 129 600 -660 Descending Potomac TRACON
04:01PM 38.9333 -77.4500 349° North  Level FlightAware Approximate
04:08PM 38.9474 -77.4599 349° North  Level Estimated
04:09PM 38.9474 -77.4599 349° North  Level Estimated